createdAt,value
2019-01-31T00:00:32.074Z,24.20
2019-01-31T00:03:48.125Z,25.20
2019-01-31T00:06:26.449Z,25.97
2019-01-31T00:09:12.365Z,26.80
2019-01-31T00:11:54.039Z,28.20
2019-01-31T00:14:41.050Z,28.13
2019-01-31T00:17:39.659Z,27.00
2019-01-31T00:20:28.484Z,27.90
2019-01-31T00:23:32.879Z,28.97
2019-01-31T00:26:38.778Z,29.47
2019-01-31T00:29:33.578Z,29.43
2019-01-31T00:32:30.770Z,28.87
2019-01-31T00:35:39.462Z,28.87
2019-01-31T00:38:24.166Z,28.97
2019-01-31T00:41:19.774Z,30.23
2019-01-31T00:44:04.527Z,30.63
2019-01-31T00:46:48.102Z,29.20
2019-01-31T00:49:51.077Z,29.97
2019-01-31T00:52:53.736Z,32.33
2019-01-31T00:55:44.286Z,31.03
2019-01-31T00:58:51.576Z,31.43
2019-01-31T01:01:36.832Z,30.10
2019-01-31T01:04:18.200Z,31.63
2019-01-31T01:07:21.600Z,31.50
2019-01-31T01:09:55.079Z,30.77
2019-01-31T01:12:51.566Z,32.37
2019-01-31T01:15:32.091Z,30.80
2019-01-31T01:18:12.649Z,31.03
2019-01-31T01:21:05.782Z,30.57
2019-01-31T01:23:52.738Z,29.87
2019-01-31T01:26:52.254Z,30.03
2019-01-31T01:29:28.772Z,30.03
2019-01-31T01:32:16.163Z,28.97
2019-01-31T01:35:29.389Z,28.13
2019-01-31T01:38:44.856Z,29.57
2019-01-31T01:42:03.062Z,29.97
2019-01-31T01:45:08.794Z,29.73
2019-01-31T01:48:12.318Z,28.40
2019-01-31T01:51:09.489Z,29.13
2019-01-31T01:54:34.812Z,30.23
2019-01-31T01:57:43.074Z,29.83
2019-01-31T02:00:51.644Z,29.07
2019-01-31T02:03:32.848Z,27.60
2019-01-31T02:06:22.291Z,28.60
2019-01-31T02:09:30.045Z,28.23
2019-01-31T02:12:26.290Z,25.50
2019-01-31T02:15:27.881Z,26.30
2019-01-31T02:18:08.950Z,28.13
2019-01-31T02:21:07.414Z,27.57
2019-01-31T02:24:11.531Z,26.50
2019-01-31T02:27:04.035Z,27.80
2019-01-31T02:29:58.122Z,27.13
2019-01-31T02:33:01.520Z,26.67
2019-01-31T02:36:22.795Z,25.17
2019-01-31T02:39:00.415Z,23.53
2019-01-31T02:41:37.167Z,26.43
2019-01-31T02:44:16.992Z,25.43
2019-01-31T02:47:22.618Z,24.63
2019-01-31T02:50:06.484Z,24.00
2019-01-31T02:53:02.454Z,23.07
2019-01-31T02:56:27.574Z,22.40
2019-01-31T02:59:04.126Z,21.87
2019-01-31T03:02:18.278Z,23.67
2019-01-31T03:05:24.775Z,22.27
2019-01-31T03:08:42.082Z,21.33
2019-01-31T03:11:36.716Z,21.93
2019-01-31T03:14:14.603Z,21.27
2019-01-31T03:17:12.936Z,20.63
2019-01-31T03:20:04.469Z,20.27
2019-01-31T03:22:52.859Z,21.80
2019-01-31T03:26:27.063Z,21.27
2019-01-31T03:29:21.156Z,21.73
2019-01-31T03:32:31.517Z,21.50
2019-01-31T03:35:19.261Z,22.67
2019-01-31T03:38:18.007Z,22.17
2019-01-31T03:41:22.517Z,21.73
2019-01-31T03:44:09.677Z,22.00
2019-01-31T03:47:14.004Z,21.70
2019-01-31T03:50:14.840Z,21.57
2019-01-31T03:53:09.786Z,21.77
2019-01-31T03:56:04.518Z,21.33
2019-01-31T03:59:15.202Z,20.70
2019-01-31T04:02:13.680Z,18.67
2019-01-31T04:05:04.249Z,20.30
2019-01-31T04:07:33.093Z,20.57
2019-01-31T04:10:01.991Z,20.10
2019-01-31T04:12:30.837Z,19.27
2019-01-31T04:14:59.723Z,19.63
2019-01-31T04:17:28.641Z,18.87
2019-01-31T04:19:57.478Z,18.57
2019-01-31T04:22:26.311Z,18.47
2019-01-31T04:24:55.131Z,18.27
2019-01-31T04:27:24.100Z,18.80
2019-01-31T04:29:53.008Z,19.30
2019-01-31T04:32:21.865Z,18.30
2019-01-31T04:34:50.704Z,19.23
2019-01-31T04:37:19.560Z,19.10
2019-01-31T04:39:48.375Z,19.03
2019-01-31T04:42:17.198Z,18.40
2019-01-31T04:44:46.074Z,17.67
2019-01-31T04:47:15.035Z,19.50
2019-01-31T04:49:43.916Z,17.83
2019-01-31T04:52:12.724Z,19.00
2019-01-31T04:54:41.690Z,18.57
2019-01-31T04:57:10.640Z,17.77
2019-01-31T04:59:39.550Z,17.63
2019-01-31T05:02:08.543Z,17.77
2019-01-31T05:04:37.444Z,17.93
2019-01-31T05:07:06.407Z,18.83
2019-01-31T05:09:35.427Z,18.07
2019-01-31T05:12:04.484Z,18.60
2019-01-31T05:14:33.338Z,17.47
2019-01-31T05:17:02.193Z,17.83
2019-01-31T05:19:31.090Z,18.30
2019-01-31T05:22:00.081Z,16.00
2019-01-31T05:24:28.997Z,15.47
2019-01-31T05:26:57.951Z,16.47
2019-01-31T05:29:26.877Z,15.33
2019-01-31T05:31:55.929Z,15.90
2019-01-31T05:34:24.824Z,15.97
2019-01-31T05:36:53.726Z,16.27
2019-01-31T05:39:22.582Z,16.87
2019-01-31T05:41:51.411Z,16.83
2019-01-31T05:44:20.543Z,17.90
2019-01-31T05:46:49.515Z,20.00
2019-01-31T05:49:18.678Z,18.43
2019-01-31T05:51:47.539Z,18.20
2019-01-31T05:54:16.365Z,17.07
2019-01-31T05:56:45.325Z,17.17
2019-01-31T05:59:14.144Z,17.03
2019-01-31T06:01:42.982Z,16.47
2019-01-31T06:04:11.871Z,17.10
2019-01-31T06:06:40.691Z,16.47
2019-01-31T06:09:09.740Z,17.13
2019-01-31T06:11:38.631Z,16.77
2019-01-31T06:14:07.683Z,16.63
2019-01-31T06:16:36.509Z,17.13
2019-01-31T06:19:05.487Z,17.27
2019-01-31T06:21:34.400Z,17.47
2019-01-31T06:24:03.358Z,17.53
2019-01-31T06:26:32.343Z,17.80
2019-01-31T06:29:01.155Z,18.30
2019-01-31T06:31:30.000Z,18.03
2019-01-31T06:33:58.823Z,19.13
2019-01-31T06:36:27.822Z,18.07
2019-01-31T06:38:56.662Z,19.00
2019-01-31T06:41:25.575Z,19.77
2019-01-31T06:43:54.429Z,18.23
2019-01-31T06:46:23.431Z,18.33
2019-01-31T06:48:52.339Z,18.03
2019-01-31T06:51:21.262Z,18.80
2019-01-31T06:53:50.140Z,18.80
2019-01-31T06:56:19.112Z,19.63
2019-01-31T06:58:48.062Z,19.67
2019-01-31T07:01:16.961Z,18.40
2019-01-31T07:03:45.923Z,20.17
2019-01-31T07:06:14.851Z,19.60
2019-01-31T07:08:43.895Z,19.33
2019-01-31T07:11:12.909Z,18.13
2019-01-31T07:13:41.928Z,18.07
2019-01-31T07:16:10.889Z,19.10
2019-01-31T07:18:39.728Z,19.40
2019-01-31T07:21:08.554Z,18.27
2019-01-31T07:23:37.471Z,19.03
2019-01-31T07:26:06.467Z,19.30
2019-01-31T07:28:35.458Z,19.13
2019-01-31T07:31:04.555Z,18.87
2019-01-31T07:33:33.478Z,20.00
2019-01-31T07:36:02.456Z,19.73
2019-01-31T07:38:31.391Z,19.73
2019-01-31T07:41:00.202Z,18.30
2019-01-31T07:43:29.045Z,18.07
2019-01-31T07:45:58.038Z,18.40
2019-01-31T07:48:26.947Z,18.40
2019-01-31T07:51:15.071Z,18.30
2019-01-31T07:53:44.057Z,17.97
2019-01-31T07:56:12.970Z,18.03
2019-01-31T07:58:41.799Z,18.30
2019-01-31T08:01:10.759Z,18.23
2019-01-31T08:03:40.755Z,18.27
2019-01-31T08:06:09.851Z,18.03
2019-01-31T08:08:38.758Z,16.77
2019-01-31T08:11:07.735Z,16.33
2019-01-31T08:13:36.576Z,16.03
2019-01-31T08:16:05.571Z,15.73
2019-01-31T08:18:34.576Z,14.27
2019-01-31T08:21:03.538Z,14.43
2019-01-31T08:23:32.444Z,13.13
2019-01-31T08:26:01.258Z,13.27
2019-01-31T08:28:30.251Z,12.07
2019-01-31T08:30:59.223Z,12.20
2019-01-31T08:33:28.479Z,12.27
2019-01-31T08:35:57.585Z,11.10
2019-01-31T08:38:26.431Z,12.07
2019-01-31T08:40:55.325Z,11.43
2019-01-31T08:43:24.327Z,12.03
2019-01-31T08:45:53.446Z,12.33
2019-01-31T08:48:22.382Z,11.30
2019-01-31T08:50:51.310Z,11.97
2019-01-31T08:53:20.175Z,12.07
2019-01-31T08:55:49.094Z,12.13
2019-01-31T08:58:17.926Z,12.00
2019-01-31T09:00:46.854Z,11.70
2019-01-31T09:03:15.672Z,12.50
2019-01-31T09:05:44.660Z,11.50
2019-01-31T09:08:13.623Z,11.70
2019-01-31T09:10:42.599Z,11.40
2019-01-31T09:13:12.418Z,11.10
2019-01-31T09:15:41.423Z,10.97
2019-01-31T09:18:10.333Z,11.13
2019-01-31T09:20:45.879Z,11.23
2019-01-31T09:23:45.424Z,9.97
2019-01-31T09:26:33.979Z,10.03
2019-01-31T09:29:31.834Z,9.30
2019-01-31T09:32:49.908Z,10.30
2019-01-31T09:35:59.506Z,9.37
2019-01-31T09:39:14.290Z,9.87
2019-01-31T09:42:26.311Z,10.10
2019-01-31T09:45:47.497Z,9.17
2019-01-31T09:48:51.226Z,8.57
2019-01-31T09:51:55.693Z,8.63
2019-01-31T09:54:55.726Z,8.80
2019-01-31T09:58:23.668Z,7.80
2019-01-31T10:01:27.386Z,8.37
2019-01-31T10:04:17.110Z,8.50
2019-01-31T10:07:32.550Z,9.77
2019-01-31T10:10:47.909Z,8.10
2019-01-31T10:14:02.978Z,8.50
2019-01-31T10:16:39.581Z,7.87
2019-01-31T10:19:29.227Z,7.47
2019-01-31T10:22:29.831Z,7.27
2019-01-31T10:25:30.176Z,7.40
2019-01-31T10:28:15.519Z,6.70
2019-01-31T10:31:15.493Z,7.23
2019-01-31T10:34:14.162Z,6.57
2019-01-31T10:36:57.622Z,6.93
2019-01-31T10:39:51.978Z,7.43
2019-01-31T10:42:36.063Z,6.70
2019-01-31T10:45:25.641Z,7.53
2019-01-31T10:48:42.143Z,6.63
2019-01-31T10:51:37.182Z,6.70
2019-01-31T10:54:14.264Z,6.73
2019-01-31T10:57:05.849Z,7.13
2019-01-31T10:59:57.382Z,6.30
2019-01-31T11:02:52.679Z,5.90
2019-01-31T11:05:46.090Z,7.17
2019-01-31T11:08:43.441Z,6.10
2019-01-31T11:11:26.578Z,6.53
2019-01-31T11:14:08.428Z,5.97
2019-01-31T11:17:10.319Z,5.87
2019-01-31T11:20:06.072Z,6.10
2019-01-31T11:23:02.179Z,5.57
2019-01-31T11:26:03.273Z,5.23
2019-01-31T11:29:09.474Z,5.27
2019-01-31T11:32:25.546Z,5.30
2019-01-31T11:35:31.423Z,5.30
2019-01-31T11:38:09.473Z,5.00
2019-01-31T11:41:17.306Z,4.70
2019-01-31T11:44:38.024Z,5.60
2019-01-31T11:47:47.066Z,5.47
2019-01-31T11:50:50.900Z,5.37
2019-01-31T11:53:48.295Z,5.10
2019-01-31T11:56:40.603Z,5.07
2019-01-31T11:59:09.581Z,5.20
2019-01-31T12:01:38.617Z,4.33
2019-01-31T12:04:15.340Z,4.60
2019-01-31T12:06:44.257Z,4.70
2019-01-31T12:09:15.633Z,4.97
2019-01-31T12:11:44.531Z,4.57
2019-01-31T12:14:13.515Z,4.87
2019-01-31T12:16:42.392Z,4.90
2019-01-31T12:19:11.502Z,5.13
2019-01-31T12:21:40.567Z,4.53
2019-01-31T12:24:16.074Z,5.13
2019-01-31T12:26:40.611Z,4.60
2019-01-31T12:29:09.598Z,4.60
2019-01-31T12:31:38.541Z,4.10
2019-01-31T12:34:07.537Z,4.10
2019-01-31T12:36:36.514Z,4.23
2019-01-31T12:39:08.859Z,4.50
2019-01-31T12:41:37.763Z,4.60
2019-01-31T12:44:06.795Z,4.57
2019-01-31T12:46:35.706Z,4.77
2019-01-31T12:49:04.614Z,4.30
2019-01-31T12:51:33.592Z,4.63
2019-01-31T12:54:02.555Z,4.80
2019-01-31T12:56:31.545Z,4.87
2019-01-31T12:59:00.368Z,5.23
2019-01-31T13:01:29.357Z,4.27
2019-01-31T13:03:58.263Z,3.80
2019-01-31T13:06:27.265Z,3.00
2019-01-31T13:08:56.225Z,3.10
2019-01-31T13:11:25.209Z,3.60
2019-01-31T13:13:54.102Z,3.33
2019-01-31T13:16:23.027Z,3.20
2019-01-31T13:18:51.983Z,3.63
2019-01-31T13:21:21.070Z,3.60
2019-01-31T13:23:50.106Z,3.77
2019-01-31T13:26:19.026Z,3.90
2019-01-31T13:28:48.005Z,4.10
2019-01-31T13:31:16.911Z,3.90
2019-01-31T13:33:46.768Z,3.57
2019-01-31T13:36:16.341Z,3.67
2019-01-31T13:38:45.151Z,3.90
2019-01-31T13:41:14.119Z,3.20
2019-01-31T13:43:43.082Z,3.47
2019-01-31T13:46:12.095Z,3.20
2019-01-31T13:48:41.078Z,3.23
2019-01-31T13:51:10.256Z,3.40
2019-01-31T13:53:39.249Z,3.27
2019-01-31T13:56:09.098Z,3.33
2019-01-31T13:58:38.005Z,3.60
2019-01-31T14:01:07.674Z,3.23
2019-01-31T14:03:36.631Z,3.30
2019-01-31T14:06:05.553Z,3.00
2019-01-31T14:08:34.530Z,3.10
2019-01-31T14:11:03.421Z,3.37
2019-01-31T14:13:32.295Z,3.37
2019-01-31T14:16:01.212Z,3.00
2019-01-31T14:18:30.188Z,3.40
2019-01-31T14:20:59.076Z,3.50
2019-01-31T14:23:27.922Z,4.37
2019-01-31T14:25:56.833Z,3.93
2019-01-31T14:28:25.731Z,4.27
2019-01-31T14:30:54.653Z,3.73
2019-01-31T14:33:25.130Z,3.90
2019-01-31T14:35:54.675Z,3.97
2019-01-31T14:38:23.693Z,4.83
2019-01-31T14:40:52.611Z,4.20
2019-01-31T14:43:21.511Z,4.20
2019-01-31T14:45:50.508Z,4.33
2019-01-31T14:48:19.400Z,4.90
2019-01-31T14:50:48.362Z,4.60
2019-01-31T14:53:17.342Z,4.40
2019-01-31T14:55:46.212Z,4.40
2019-01-31T14:58:15.299Z,4.00
2019-01-31T15:00:44.270Z,4.17
2019-01-31T15:03:13.245Z,5.00
2019-01-31T15:05:42.291Z,5.07
2019-01-31T15:08:11.204Z,4.37
2019-01-31T15:10:41.129Z,4.40
2019-01-31T15:13:10.049Z,5.10
2019-01-31T15:15:39.114Z,4.10
2019-01-31T15:18:08.864Z,4.20
2019-01-31T15:20:46.872Z,3.93
2019-01-31T15:23:15.810Z,3.90
2019-01-31T15:25:44.786Z,3.60
2019-01-31T15:28:13.682Z,3.27
2019-01-31T15:30:42.534Z,3.60
2019-01-31T15:33:13.225Z,3.80
2019-01-31T15:35:43.037Z,3.60
2019-01-31T15:38:12.008Z,3.37
2019-01-31T15:40:43.638Z,3.50
2019-01-31T15:43:12.634Z,3.37
2019-01-31T15:45:41.622Z,3.30
2019-01-31T15:48:10.994Z,3.43
2019-01-31T15:50:40.184Z,3.20
2019-01-31T15:53:09.238Z,3.47
2019-01-31T15:55:38.259Z,3.10
2019-01-31T15:58:08.229Z,3.37
2019-01-31T16:00:44.062Z,3.10
2019-01-31T16:03:23.526Z,3.00
2019-01-31T16:05:52.697Z,3.17
2019-01-31T16:08:22.009Z,3.20
2019-01-31T16:10:50.968Z,3.77
2019-01-31T16:13:19.932Z,3.30
2019-01-31T16:15:49.055Z,3.50
2019-01-31T16:18:18.184Z,3.50
2019-01-31T16:20:47.059Z,3.13
2019-01-31T16:23:16.647Z,3.50
2019-01-31T16:25:47.858Z,3.10
2019-01-31T16:28:17.002Z,3.40
2019-01-31T16:30:45.947Z,3.53
2019-01-31T16:33:14.872Z,3.27
2019-01-31T16:35:44.324Z,3.40
2019-01-31T16:38:13.364Z,3.43
2019-01-31T16:40:42.324Z,3.50
2019-01-31T16:43:33.230Z,3.93
2019-01-31T16:46:02.222Z,3.53
2019-01-31T16:48:31.114Z,3.30
2019-01-31T16:51:08.213Z,3.73
2019-01-31T16:54:59.544Z,3.50
2019-01-31T17:01:08.976Z,2.90
2019-01-31T17:14:44.774Z,3.10
2019-01-31T17:23:06.241Z,3.17
2019-01-31T17:28:24.206Z,3.53
2019-01-31T17:30:53.170Z,3.60
2019-01-31T17:33:21.985Z,3.90
2019-01-31T17:35:50.795Z,3.83
2019-01-31T17:38:19.947Z,3.70
2019-01-31T17:40:51.002Z,4.10
2019-01-31T17:43:22.162Z,4.20
2019-01-31T17:45:51.815Z,3.90
2019-01-31T17:48:20.597Z,3.70
2019-01-31T17:50:49.556Z,3.03
2019-01-31T17:53:18.544Z,2.90
2019-01-31T17:55:47.605Z,3.20
2019-01-31T17:58:16.592Z,3.40
2019-01-31T18:00:54.349Z,3.10
2019-01-31T18:03:23.465Z,3.80
2019-01-31T18:05:52.499Z,3.40
2019-01-31T18:08:21.496Z,3.20
2019-01-31T18:10:50.431Z,3.07
2019-01-31T18:13:19.698Z,3.17
2019-01-31T18:15:48.765Z,3.30
2019-01-31T18:18:17.843Z,3.17
2019-01-31T18:20:46.927Z,3.00
2019-01-31T18:23:16.031Z,3.27
2019-01-31T18:25:44.950Z,3.10
2019-01-31T18:28:15.017Z,3.20
2019-01-31T18:30:45.433Z,3.70
2019-01-31T18:33:14.343Z,3.10
2019-01-31T18:35:43.318Z,3.07
2019-01-31T18:38:12.272Z,3.77
2019-01-31T18:40:41.417Z,3.40
2019-01-31T18:43:10.365Z,2.90
2019-01-31T18:45:39.341Z,3.30
2019-01-31T18:48:08.859Z,3.13
2019-01-31T18:50:40.831Z,2.97
2019-01-31T18:53:10.041Z,2.73
2019-01-31T18:55:39.412Z,2.80
2019-01-31T18:58:10.746Z,3.07
2019-01-31T19:00:51.909Z,2.70
2019-01-31T19:03:22.743Z,2.83
2019-01-31T19:05:52.424Z,2.90
2019-01-31T19:08:22.375Z,2.57
2019-01-31T19:10:52.534Z,3.00
2019-01-31T19:13:21.594Z,2.60
2019-01-31T19:15:50.567Z,2.80
2019-01-31T19:18:19.444Z,2.90
2019-01-31T19:20:48.633Z,3.13
2019-01-31T19:23:17.682Z,3.10
2019-01-31T19:25:47.315Z,3.00
2019-01-31T19:28:16.546Z,3.10
2019-01-31T19:30:45.601Z,3.10
2019-01-31T19:33:14.835Z,3.10
2019-01-31T19:35:43.749Z,3.30
2019-01-31T19:38:13.167Z,3.03
2019-01-31T19:40:44.318Z,3.10
2019-01-31T19:43:13.344Z,3.30
2019-01-31T19:45:47.694Z,3.10
2019-01-31T19:48:17.461Z,3.10
2019-01-31T19:50:46.542Z,3.20
2019-01-31T19:53:15.663Z,3.23
2019-01-31T19:55:44.990Z,3.30
2019-01-31T19:58:14.042Z,3.00
2019-01-31T20:00:43.714Z,3.20
2019-01-31T20:03:12.758Z,3.27
2019-01-31T20:05:42.402Z,3.17
2019-01-31T20:08:12.133Z,3.27
2019-01-31T20:10:42.310Z,3.43
2019-01-31T20:13:11.419Z,3.03
2019-01-31T20:15:41.998Z,3.50
2019-01-31T20:18:12.150Z,3.60
2019-01-31T20:20:42.869Z,3.43
2019-01-31T20:23:12.327Z,3.50
2019-01-31T20:25:41.583Z,3.50
2019-01-31T20:30:58.255Z,3.67
2019-01-31T20:33:35.667Z,3.90
2019-01-31T20:36:07.208Z,3.47
2019-01-31T20:38:36.459Z,3.10
2019-01-31T20:41:06.089Z,3.73
2019-01-31T20:43:37.235Z,3.43
2019-01-31T20:46:08.991Z,3.17
2019-01-31T20:48:39.107Z,3.30
2019-01-31T20:51:12.693Z,3.90
2019-01-31T20:53:43.261Z,3.60
2019-01-31T20:56:12.754Z,3.80
2019-01-31T20:58:44.695Z,4.40
2019-01-31T21:01:18.378Z,5.00
2019-01-31T21:03:49.452Z,4.33
2019-01-31T21:06:18.779Z,4.80
2019-01-31T21:08:48.924Z,4.70
2019-01-31T21:11:18.337Z,4.33
2019-01-31T21:13:47.298Z,4.63
2019-01-31T21:16:17.594Z,4.20
2019-01-31T21:18:46.583Z,4.87
2019-01-31T21:21:15.755Z,4.63
2019-01-31T21:23:44.705Z,5.00
2019-01-31T21:26:13.967Z,4.60
2019-01-31T21:28:42.906Z,4.63
2019-01-31T21:31:11.791Z,4.90
2019-01-31T21:33:40.683Z,5.20
2019-01-31T21:36:09.677Z,4.90
2019-01-31T21:38:38.639Z,4.50
2019-01-31T21:41:07.602Z,5.17
2019-01-31T21:43:36.723Z,4.97
2019-01-31T21:46:05.814Z,4.90
2019-01-31T21:48:34.756Z,5.20
2019-01-31T21:51:03.825Z,4.60
2019-01-31T21:53:32.837Z,5.17
2019-01-31T21:56:01.876Z,4.83
2019-01-31T21:58:30.806Z,4.47
2019-01-31T22:00:59.734Z,4.50
2019-01-31T22:03:29.814Z,4.87
2019-01-31T22:05:58.762Z,4.37
2019-01-31T22:08:27.690Z,4.40
2019-01-31T22:10:56.635Z,5.00
2019-01-31T22:13:25.588Z,4.77
2019-01-31T22:15:54.512Z,4.23
2019-01-31T22:18:23.542Z,4.67
2019-01-31T22:20:52.487Z,4.00
2019-01-31T22:23:21.426Z,4.77
2019-01-31T22:25:50.309Z,4.63
2019-01-31T22:28:19.196Z,4.70
2019-01-31T22:30:48.160Z,4.93
2019-01-31T22:33:16.974Z,5.07
2019-01-31T22:35:45.771Z,4.73
2019-01-31T22:38:14.577Z,4.90
2019-01-31T22:40:43.367Z,4.87
2019-01-31T22:43:12.179Z,4.77
2019-01-31T22:45:41.065Z,4.60
2019-01-31T22:48:10.659Z,4.90
2019-01-31T22:50:39.622Z,4.90
2019-01-31T22:53:08.430Z,4.53
2019-01-31T22:55:37.316Z,4.40
2019-01-31T22:58:06.941Z,4.47
2019-01-31T23:01:19.111Z,4.40
2019-01-31T23:03:48.095Z,4.10
2019-01-31T23:06:17.815Z,4.03
2019-01-31T23:08:46.782Z,4.03
2019-01-31T23:11:15.731Z,4.33
2019-01-31T23:13:44.641Z,4.50
2019-01-31T23:16:13.581Z,4.33
2019-01-31T23:18:42.469Z,4.50
2019-01-31T23:21:11.344Z,4.97
2019-01-31T23:23:40.231Z,4.90
2019-01-31T23:26:09.186Z,4.57
2019-01-31T23:28:38.007Z,5.10
2019-01-31T23:31:06.874Z,4.60
2019-01-31T23:33:35.709Z,5.30
2019-01-31T23:36:05.319Z,4.70
2019-01-31T23:38:34.186Z,4.97
2019-01-31T23:41:02.995Z,5.10
2019-01-31T23:43:31.862Z,4.60
2019-01-31T23:46:00.765Z,4.73
2019-01-31T23:48:29.643Z,4.50
2019-01-31T23:50:58.449Z,4.37
2019-01-31T23:53:27.257Z,4.30
2019-01-31T23:55:56.153Z,5.13
2019-01-31T23:58:25.045Z,4.67
